createdAt,value
2019-04-29T00:00:53.422Z,96666.77
2019-04-29T00:03:22.882Z,96659.13
2019-04-29T00:05:51.492Z,96654.47
2019-04-29T00:08:20.130Z,96657.47
2019-04-29T00:10:48.873Z,96662.22
2019-04-29T00:13:17.413Z,96664.67
2019-04-29T00:15:50.467Z,96652.89
2019-04-29T00:18:20.595Z,96656.32
2019-04-29T00:20:50.626Z,96650.79
2019-04-29T00:23:19.299Z,96655.23
2019-04-29T00:25:47.843Z,96651.88
2019-04-29T00:28:16.471Z,96657.98
2019-04-29T00:30:45.133Z,96653.47
2019-04-29T00:33:13.796Z,96655.42
2019-04-29T00:35:42.274Z,96655.02
2019-04-29T00:38:12.569Z,96655.30
2019-04-29T00:40:51.937Z,96647.09
2019-04-29T00:43:22.226Z,96654.61
2019-04-29T00:45:50.690Z,96652.30
2019-04-29T00:48:19.172Z,96651.80
2019-04-29T00:50:47.747Z,96653.56
2019-04-29T00:53:16.390Z,96651.03
2019-04-29T00:55:44.890Z,96640.51
2019-04-29T00:58:13.478Z,96636.81
2019-04-29T01:00:42.872Z,96640.14
2019-04-29T01:03:11.385Z,96627.33
2019-04-29T01:05:39.948Z,96630.66
2019-04-29T01:08:08.498Z,96625.94
2019-04-29T01:10:37.080Z,96622.36
2019-04-29T01:13:05.848Z,96620.83
2019-04-29T01:15:34.415Z,96627.20
2019-04-29T01:18:03.174Z,96623.52
2019-04-29T01:20:31.673Z,96616.81
2019-04-29T01:23:00.198Z,96625.17
2019-04-29T01:25:28.725Z,96615.48
2019-04-29T01:28:14.857Z,96620.52
2019-04-29T01:30:55.133Z,96622.36
2019-04-29T01:33:24.060Z,96623.83
2019-04-29T01:35:54.172Z,96618.43
2019-04-29T01:38:22.640Z,96627.48
2019-04-29T01:40:58.385Z,96624.84
2019-04-29T01:43:28.500Z,96619.50
2019-04-29T01:45:57.003Z,96614.83
2019-04-29T01:48:25.506Z,96628.95
2019-04-29T01:50:53.996Z,96621.16
2019-04-29T01:53:22.483Z,96617.09
2019-04-29T01:55:50.978Z,96618.43
2019-04-29T01:58:19.545Z,96613.69
2019-04-29T02:00:48.069Z,96614.70
2019-04-29T02:03:16.723Z,96611.52
2019-04-29T02:05:45.215Z,96614.20
2019-04-29T02:08:13.803Z,96615.16
2019-04-29T02:10:42.416Z,96613.32
2019-04-29T02:13:11.032Z,96612.86
2019-04-29T02:15:39.511Z,96612.22
2019-04-29T02:18:08.007Z,96608.71
2019-04-29T02:20:36.521Z,96608.09
2019-04-29T02:23:09.736Z,96598.91
2019-04-29T02:25:39.860Z,96595.59
2019-04-29T02:28:08.423Z,96601.96
2019-04-29T02:30:42.604Z,96600.95
2019-04-29T02:33:11.088Z,96601.27
2019-04-29T02:35:39.737Z,96598.45
2019-04-29T02:38:09.918Z,96598.13
2019-04-29T02:40:54.582Z,96596.80
2019-04-29T02:43:24.829Z,96602.36
2019-04-29T02:45:53.276Z,96599.69
2019-04-29T02:48:21.794Z,96602.88
2019-04-29T02:50:50.368Z,96598.40
2019-04-29T02:53:18.936Z,96600.06
2019-04-29T02:55:49.096Z,96598.91
2019-04-29T02:58:28.239Z,96602.23
2019-04-29T03:01:16.496Z,96598.86
2019-04-29T03:03:52.407Z,96612.53
2019-04-29T03:06:20.897Z,96606.99
2019-04-29T03:08:49.496Z,96608.02
2019-04-29T03:11:19.039Z,96604.13
2019-04-29T03:13:47.585Z,96608.66
2019-04-29T03:16:16.285Z,96601.83
2019-04-29T03:18:55.390Z,96616.45
2019-04-29T03:21:28.120Z,96612.86
2019-04-29T03:23:56.624Z,96620.38
2019-04-29T03:26:25.218Z,96613.69
2019-04-29T03:28:53.799Z,96604.31
2019-04-29T03:31:22.292Z,96606.30
2019-04-29T03:33:50.755Z,96619.00
2019-04-29T03:36:19.411Z,96613.19
2019-04-29T03:38:47.926Z,96617.52
2019-04-29T03:41:16.525Z,96622.05
2019-04-29T03:43:45.034Z,96621.22
2019-04-29T03:46:13.515Z,96622.23
2019-04-29T03:48:42.003Z,96621.11
2019-04-29T03:51:10.507Z,96619.13
2019-04-29T03:53:39.125Z,96622.45
2019-04-29T03:56:07.706Z,96617.28
2019-04-29T03:58:36.201Z,96620.78
2019-04-29T04:01:09.220Z,96621.72
2019-04-29T04:03:39.383Z,96623.57
2019-04-29T04:06:09.553Z,96626.89
2019-04-29T04:08:42.356Z,96628.88
2019-04-29T04:11:10.838Z,96633.22
2019-04-29T04:13:39.346Z,96630.03
2019-04-29T04:16:09.544Z,96633.03
2019-04-29T04:18:38.232Z,96640.74
2019-04-29T04:21:06.699Z,96635.06
2019-04-29T04:23:35.192Z,96640.85
2019-04-29T04:26:03.759Z,96640.98
2019-04-29T04:28:32.234Z,96641.55
2019-04-29T04:31:00.858Z,96647.37
2019-04-29T04:33:29.405Z,96652.54
2019-04-29T04:35:57.882Z,96650.80
2019-04-29T04:38:26.343Z,96656.16
2019-04-29T04:40:59.509Z,96659.34
2019-04-29T04:43:27.931Z,96659.56
2019-04-29T04:45:56.495Z,96669.87
2019-04-29T04:48:24.961Z,96674.73
2019-04-29T04:50:53.494Z,96675.30
2019-04-29T04:53:22.099Z,96676.71
2019-04-29T04:55:52.149Z,96680.19
2019-04-29T04:58:20.926Z,96681.53
2019-04-29T05:00:49.553Z,96678.34
2019-04-29T05:03:17.981Z,96687.53
2019-04-29T05:05:46.489Z,96687.21
2019-04-29T05:08:15.013Z,96695.38
2019-04-29T05:10:43.511Z,96698.63
2019-04-29T05:13:12.135Z,96693.09
2019-04-29T05:15:40.776Z,96694.25
2019-04-29T05:18:09.314Z,96696.55
2019-04-29T05:20:37.855Z,96697.11
2019-04-29T05:23:06.391Z,96699.46
2019-04-29T05:25:35.072Z,96701.53
2019-04-29T05:28:04.079Z,96705.47
2019-04-29T05:30:32.633Z,96707.45
2019-04-29T05:33:01.223Z,96708.09
2019-04-29T05:35:40.122Z,96708.28
2019-04-29T05:38:09.182Z,96709.16
2019-04-29T05:40:42.041Z,96715.35
2019-04-29T05:43:12.278Z,96718.98
2019-04-29T05:45:48.300Z,96713.16
2019-04-29T05:48:18.663Z,96722.03
2019-04-29T05:50:52.156Z,96725.49
2019-04-29T05:53:20.703Z,96722.67
2019-04-29T05:55:52.401Z,96720.83
2019-04-29T05:58:19.543Z,96726.33
2019-04-29T06:00:52.464Z,96725.88
2019-04-29T06:03:20.939Z,96727.87
2019-04-29T06:05:49.434Z,96723.84
2019-04-29T06:08:17.921Z,96727.87
2019-04-29T06:10:46.437Z,96733.01
2019-04-29T06:13:14.943Z,96734.48
2019-04-29T06:15:43.511Z,96739.30
2019-04-29T06:18:11.995Z,96732.09
2019-04-29T06:20:40.500Z,96734.77
2019-04-29T06:23:09.006Z,96742.98
2019-04-29T06:25:37.525Z,96740.41
2019-04-29T06:28:06.012Z,96742.36
2019-04-29T06:30:37.635Z,96743.56
2019-04-29T06:33:04.877Z,96738.98
2019-04-29T06:35:33.380Z,96741.95
2019-04-29T06:38:01.858Z,96743.30
2019-04-29T06:40:34.926Z,96745.23
2019-04-29T06:43:00.584Z,96748.88
2019-04-29T06:45:29.066Z,96743.89
2019-04-29T06:47:57.591Z,96740.25
2019-04-29T06:50:26.090Z,96739.92
2019-04-29T06:52:54.561Z,96742.23
2019-04-29T06:55:23.137Z,96748.38
2019-04-29T06:57:51.651Z,96746.48
2019-04-29T07:00:22.349Z,96753.83
2019-04-29T07:02:51.078Z,96759.29
2019-04-29T07:05:19.677Z,96754.25
2019-04-29T07:07:48.146Z,96754.39
2019-04-29T07:10:21.715Z,96757.58
2019-04-29T07:12:47.650Z,96760.95
2019-04-29T07:15:17.053Z,96764.70
2019-04-29T07:17:45.615Z,96765.17
2019-04-29T07:20:14.571Z,96766.83
2019-04-29T07:22:43.071Z,96764.98
2019-04-29T07:25:11.788Z,96768.03
2019-04-29T07:27:43.387Z,96772.06
2019-04-29T07:30:10.850Z,96765.54
2019-04-29T07:32:42.149Z,96767.09
2019-04-29T07:35:11.488Z,96771.30
2019-04-29T07:37:40.145Z,96770.58
2019-04-29T07:40:09.375Z,96763.38
2019-04-29T07:42:37.958Z,96763.08
2019-04-29T07:45:11.653Z,96765.22
2019-04-29T07:47:55.378Z,96765.67
2019-04-29T07:50:12.242Z,96766.32
2019-04-29T07:52:40.863Z,96773.78
2019-04-29T07:55:09.613Z,96777.34
2019-04-29T07:57:38.138Z,96775.20
2019-04-29T08:00:12.341Z,96781.58
2019-04-29T08:02:38.556Z,96787.78
2019-04-29T08:05:07.832Z,96791.66
2019-04-29T08:07:37.863Z,96785.28
2019-04-29T08:10:22.867Z,96784.96
2019-04-29T08:12:38.894Z,96787.31
2019-04-29T08:15:09.096Z,96788.47
2019-04-29T08:17:38.225Z,96792.09
2019-04-29T08:20:07.262Z,96793.65
2019-04-29T08:22:35.845Z,96793.52
2019-04-29T08:25:06.270Z,96797.21
2019-04-29T08:27:40.594Z,96797.86
2019-04-29T08:30:11.293Z,96801.38
2019-04-29T08:32:38.102Z,96808.07
2019-04-29T08:35:07.147Z,96807.42
2019-04-29T08:37:35.784Z,96806.59
2019-04-29T08:40:15.838Z,96816.56
2019-04-29T08:42:46.366Z,96812.59
2019-04-29T08:45:19.804Z,96821.98
2019-04-29T08:47:50.225Z,96820.63
2019-04-29T08:50:18.798Z,96825.53
2019-04-29T08:52:47.288Z,96830.09
2019-04-29T08:55:19.176Z,96830.47
2019-04-29T08:57:46.267Z,96827.27
2019-04-29T09:00:16.951Z,96827.09
2019-04-29T09:02:46.913Z,96828.43
2019-04-29T09:05:16.463Z,96829.87
2019-04-29T09:07:44.980Z,96829.38
2019-04-29T09:10:13.718Z,96823.27
2019-04-29T09:12:42.281Z,96824.34
2019-04-29T09:15:11.810Z,96820.51
2019-04-29T09:17:40.343Z,96821.85
2019-04-29T09:20:09.272Z,96817.14
2019-04-29T09:22:39.389Z,96812.09
2019-04-29T09:25:16.763Z,96816.04
2019-04-29T09:27:49.637Z,96813.63
2019-04-29T09:30:18.375Z,96813.69
2019-04-29T09:32:46.943Z,96814.06
2019-04-29T09:35:15.601Z,96813.69
2019-04-29T09:37:44.078Z,96804.11
2019-04-29T09:40:19.888Z,96805.77
2019-04-29T09:43:15.273Z,96799.39
2019-04-29T09:45:41.367Z,96797.19
2019-04-29T09:48:09.897Z,96795.64
2019-04-29T09:50:39.003Z,96799.66
2019-04-29T09:53:08.611Z,96799.00
2019-04-29T09:55:39.952Z,96791.12
2019-04-29T09:58:07.345Z,96796.42
2019-04-29T10:00:52.404Z,96794.09
2019-04-29T10:03:25.386Z,96795.09
2019-04-29T10:06:07.607Z,96790.22
2019-04-29T10:08:36.143Z,96776.61
2019-04-29T10:11:05.780Z,96781.87
2019-04-29T10:13:34.330Z,96779.65
2019-04-29T10:16:04.460Z,96781.53
2019-04-29T10:18:43.649Z,96780.44
2019-04-29T10:21:16.582Z,96769.70
2019-04-29T10:23:44.654Z,96769.93
2019-04-29T10:26:13.264Z,96774.83
2019-04-29T10:28:43.417Z,96771.95
2019-04-29T10:31:12.086Z,96767.81
2019-04-29T10:33:40.665Z,96771.94
2019-04-29T10:36:09.438Z,96767.09
2019-04-29T10:38:40.513Z,96759.73
2019-04-29T10:41:12.720Z,96762.30
2019-04-29T10:43:55.642Z,96763.88
2019-04-29T10:46:41.487Z,96768.20
2019-04-29T10:49:14.653Z,96768.23
2019-04-29T10:51:43.242Z,96765.43
2019-04-29T10:54:14.211Z,96764.58
2019-04-29T10:56:43.095Z,96763.47
2019-04-29T10:59:12.045Z,96763.75
2019-04-29T11:02:01.165Z,96753.22
2019-04-29T11:04:24.674Z,96755.89
2019-04-29T11:06:53.223Z,96755.37
2019-04-29T11:09:24.850Z,96760.34
2019-04-29T11:11:53.400Z,96740.78
2019-04-29T11:14:24.666Z,96755.27
2019-04-29T11:16:52.250Z,96750.89
2019-04-29T11:19:20.800Z,96751.61
2019-04-29T11:21:49.367Z,96754.88
2019-04-29T11:24:32.474Z,96749.36
2019-04-29T11:27:11.503Z,96742.22
2019-04-29T11:29:35.702Z,96738.01
2019-04-29T11:32:04.922Z,96741.56
2019-04-29T11:34:37.691Z,96730.72
2019-04-29T11:37:07.924Z,96734.28
2019-04-29T11:39:36.671Z,96736.22
2019-04-29T11:42:08.799Z,96725.08
2019-04-29T11:44:37.261Z,96729.54
2019-04-29T11:47:05.927Z,96729.08
2019-04-29T11:49:36.202Z,96723.01
2019-04-29T11:52:09.844Z,96728.32
2019-04-29T11:54:35.157Z,96712.30
2019-04-29T11:57:05.649Z,96709.08
2019-04-29T11:59:41.769Z,96710.98
2019-04-29T12:02:12.037Z,96704.77
2019-04-29T12:04:42.514Z,96702.39
2019-04-29T12:07:11.333Z,96701.30
2019-04-29T12:09:39.979Z,96702.46
2019-04-29T12:12:12.892Z,96700.73
2019-04-29T12:14:41.175Z,96701.50
2019-04-29T12:17:17.251Z,96693.75
2019-04-29T12:19:47.402Z,96693.44
2019-04-29T12:22:28.295Z,96696.23
2019-04-29T12:24:46.158Z,96689.09
2019-04-29T12:27:19.819Z,96686.02
2019-04-29T12:29:48.813Z,96684.84
2019-04-29T12:32:29.534Z,96679.50
2019-04-29T12:35:02.431Z,96681.00
2019-04-29T12:37:38.132Z,96672.33
2019-04-29T12:40:26.903Z,96669.69
2019-04-29T12:43:00.020Z,96672.95
2019-04-29T12:45:30.179Z,96670.73
2019-04-29T12:47:58.668Z,96669.69
2019-04-29T12:50:27.596Z,96673.09
2019-04-29T12:52:56.068Z,96670.52
2019-04-29T12:55:43.496Z,96670.98
2019-04-29T12:57:56.672Z,96669.78
2019-04-29T13:00:46.472Z,96663.97
2019-04-29T13:03:07.001Z,96658.81
2019-04-29T13:05:58.444Z,96662.27
2019-04-29T13:08:25.213Z,96654.98
2019-04-29T13:10:55.428Z,96653.77
2019-04-29T13:13:24.183Z,96655.42
2019-04-29T13:16:03.317Z,96655.63
2019-04-29T13:18:35.990Z,96653.08
2019-04-29T13:21:10.430Z,96653.15
2019-04-29T13:23:46.991Z,96641.75
2019-04-29T13:26:07.897Z,96637.50
2019-04-29T13:28:51.863Z,96637.11
2019-04-29T13:31:05.975Z,96633.38
2019-04-29T13:33:34.642Z,96625.57
2019-04-29T13:36:03.698Z,96627.22
2019-04-29T13:38:32.283Z,96623.83
2019-04-29T13:41:13.089Z,96617.77
2019-04-29T13:43:35.326Z,96622.17
2019-04-29T13:46:19.092Z,96617.16
2019-04-29T13:49:12.354Z,96615.20
2019-04-29T13:51:36.336Z,96621.52
2019-04-29T13:54:06.137Z,96624.66
2019-04-29T13:56:54.180Z,96619.55
2019-04-29T13:59:10.052Z,96614.38
2019-04-29T14:01:39.701Z,96617.91
2019-04-29T14:04:11.999Z,96613.77
2019-04-29T14:06:55.640Z,96616.47
2019-04-29T14:09:12.512Z,96608.67
2019-04-29T14:11:41.086Z,96614.46
2019-04-29T14:14:09.581Z,96616.11
2019-04-29T14:16:38.061Z,96612.81
2019-04-29T14:19:08.615Z,96614.02
2019-04-29T14:21:36.945Z,96613.94
2019-04-29T14:24:05.533Z,96612.28
2019-04-29T14:26:37.057Z,96612.59
2019-04-29T14:29:04.999Z,96610.41
2019-04-29T14:31:34.046Z,96610.63
2019-04-29T14:34:06.725Z,96609.19
2019-04-29T14:36:35.394Z,96615.87
2019-04-29T14:39:05.376Z,96617.19
2019-04-29T14:41:35.657Z,96619.34
2019-04-29T14:44:08.699Z,96614.53
2019-04-29T14:46:56.214Z,96619.44
2019-04-29T14:49:26.344Z,96618.83
2019-04-29T14:51:54.818Z,96626.31
2019-04-29T14:54:23.289Z,96621.03
2019-04-29T14:56:51.784Z,96618.95
2019-04-29T14:59:20.535Z,96622.38
2019-04-29T15:01:53.350Z,96625.59
2019-04-29T15:04:23.603Z,96628.52
2019-04-29T15:06:52.068Z,96630.29
2019-04-29T15:09:20.624Z,96630.44
2019-04-29T15:11:50.867Z,96633.25
2019-04-29T15:14:27.256Z,96632.21
2019-04-29T15:16:58.540Z,96636.38
2019-04-29T15:19:49.409Z,96638.17
2019-04-29T15:22:16.685Z,96635.44
2019-04-29T15:24:45.253Z,96639.74
2019-04-29T15:27:13.732Z,96635.34
2019-04-29T15:29:42.223Z,96636.21
2019-04-29T15:32:11.241Z,96638.77
2019-04-29T15:34:43.692Z,96637.09
2019-04-29T15:37:09.958Z,96643.83
2019-04-29T15:39:40.785Z,96647.37
2019-04-29T15:42:09.177Z,96643.73
2019-04-29T15:44:37.844Z,96650.42
2019-04-29T15:47:06.360Z,96649.94
2019-04-29T15:49:34.957Z,96651.39
2019-04-29T15:52:03.610Z,96645.39
2019-04-29T15:54:32.076Z,96644.97
2019-04-29T15:57:03.618Z,96645.06
2019-04-29T15:59:31.034Z,96643.20
2019-04-29T16:02:04.169Z,96648.80
2019-04-29T16:04:40.101Z,96647.66
2019-04-29T16:07:26.761Z,96649.02
2019-04-29T16:10:02.359Z,96649.67
2019-04-29T16:12:35.470Z,96647.91
2019-04-29T16:15:04.591Z,96646.08
2019-04-29T16:17:37.889Z,96647.95
2019-04-29T16:20:03.371Z,96645.32
2019-04-29T16:22:31.850Z,96647.29
2019-04-29T16:25:04.927Z,96644.59
2019-04-29T16:27:30.634Z,96651.84
2019-04-29T16:29:59.140Z,96647.13
2019-04-29T16:32:29.343Z,96647.73
2019-04-29T16:34:57.842Z,96643.77
2019-04-29T16:37:31.791Z,96644.48
2019-04-29T16:39:59.851Z,96647.19
2019-04-29T16:42:28.571Z,96650.19
2019-04-29T16:44:57.147Z,96643.97
2019-04-29T16:47:25.804Z,96650.44
2019-04-29T16:49:57.552Z,96643.98
2019-04-29T16:52:24.614Z,96645.94
2019-04-29T16:54:53.220Z,96641.86
2019-04-29T16:57:21.757Z,96645.83
2019-04-29T16:59:50.242Z,96643.17
2019-04-29T17:02:19.565Z,96645.77
2019-04-29T17:04:48.258Z,96644.63
2019-04-29T17:07:17.781Z,96645.16
2019-04-29T17:09:57.385Z,96642.14
2019-04-29T17:12:29.323Z,96643.19
2019-04-29T17:15:14.831Z,96647.02
2019-04-29T17:17:29.592Z,96646.59
2019-04-29T17:19:58.175Z,96647.74
2019-04-29T17:22:27.648Z,96653.78
2019-04-29T17:24:56.285Z,96649.84
2019-04-29T17:27:29.326Z,96660.41
2019-04-29T17:30:14.575Z,96660.11
2019-04-29T17:32:48.486Z,96662.48
2019-04-29T17:35:21.263Z,96659.20
2019-04-29T17:37:45.661Z,96666.25
2019-04-29T17:40:16.145Z,96666.77
2019-04-29T17:42:46.351Z,96669.05
2019-04-29T17:45:26.944Z,96674.95
2019-04-29T17:47:49.142Z,96674.45
2019-04-29T17:50:29.459Z,96680.39
2019-04-29T17:52:49.720Z,96675.62
2019-04-29T17:55:19.839Z,96682.06
2019-04-29T17:57:54.481Z,96681.12
2019-04-29T18:00:44.783Z,96679.91
2019-04-29T18:03:29.349Z,96679.59
2019-04-29T18:06:18.807Z,96685.71
2019-04-29T18:08:48.714Z,96688.11
2019-04-29T18:11:17.218Z,96685.72
2019-04-29T18:13:45.991Z,96688.28
2019-04-29T18:16:19.068Z,96691.61
2019-04-29T18:18:57.703Z,96692.63
2019-04-29T18:21:28.456Z,96697.91
2019-04-29T18:24:15.363Z,96696.04
2019-04-29T18:26:54.153Z,96696.47
2019-04-29T18:29:23.131Z,96696.67
2019-04-29T18:31:51.689Z,96699.36
2019-04-29T18:34:20.290Z,96708.78
2019-04-29T18:36:48.867Z,96710.01
2019-04-29T18:39:20.066Z,96704.62
2019-04-29T18:41:49.418Z,96710.52
2019-04-29T18:44:19.545Z,96712.38
2019-04-29T18:46:53.393Z,96716.73
2019-04-29T18:49:18.497Z,96713.61
2019-04-29T18:51:46.999Z,96715.78
2019-04-29T18:54:16.591Z,96714.13
2019-04-29T18:56:45.626Z,96718.79
2019-04-29T18:59:18.249Z,96723.53
2019-04-29T19:01:45.045Z,96721.88
2019-04-29T19:04:21.005Z,96724.24
2019-04-29T19:06:51.202Z,96726.22
2019-04-29T19:09:21.462Z,96727.37
2019-04-29T19:11:50.119Z,96727.77
2019-04-29T19:14:20.631Z,96728.98
2019-04-29T19:16:52.737Z,96735.11
2019-04-29T19:19:19.079Z,96739.11
2019-04-29T19:21:47.615Z,96743.05
2019-04-29T19:24:16.286Z,96753.68
2019-04-29T19:26:44.973Z,96755.97
2019-04-29T19:29:15.494Z,96754.19
2019-04-29T19:31:48.631Z,96750.87
2019-04-29T19:34:18.519Z,96753.98
2019-04-29T19:36:45.166Z,96749.12
2019-04-29T19:39:16.872Z,96752.52
2019-04-29T19:41:49.346Z,96748.05
2019-04-29T19:44:15.522Z,96752.72
2019-04-29T19:46:45.386Z,96748.80
2019-04-29T19:49:15.694Z,96753.98
2019-04-29T19:51:47.378Z,96755.01
2019-04-29T19:54:16.987Z,96754.18
2019-04-29T19:56:44.719Z,96752.00
2019-04-29T19:59:16.619Z,96755.72
2019-04-29T20:01:48.608Z,96752.50
2019-04-29T20:04:22.531Z,96744.95
2019-04-29T20:06:49.083Z,96751.67
2019-04-29T20:09:22.409Z,96753.33
2019-04-29T20:11:50.308Z,96754.87
2019-04-29T20:14:25.412Z,96740.48
2019-04-29T20:16:57.321Z,96743.80
2019-04-29T20:19:41.907Z,96743.69
2019-04-29T20:22:10.871Z,96739.87
2019-04-29T20:24:40.322Z,96745.77
2019-04-29T20:27:09.082Z,96741.38
2019-04-29T20:29:38.528Z,96743.65
2019-04-29T20:32:08.089Z,96742.11
2019-04-29T20:34:36.859Z,96736.54
2019-04-29T20:37:06.157Z,96732.92
2019-04-29T20:39:36.188Z,96742.12
2019-04-29T20:42:06.416Z,96737.70
2019-04-29T20:44:36.972Z,96733.04
2019-04-29T20:47:19.772Z,96734.06
2019-04-29T20:49:39.438Z,96731.58
2019-04-29T20:52:08.005Z,96731.97
2019-04-29T20:54:36.693Z,96729.50
2019-04-29T20:57:12.642Z,96726.38
2019-04-29T20:59:35.948Z,96730.73
2019-04-29T21:02:12.399Z,96731.05
2019-04-29T21:04:45.840Z,96725.98
2019-04-29T21:07:07.107Z,96722.56
2019-04-29T21:09:35.802Z,96728.06
2019-04-29T21:12:15.365Z,96721.84
2019-04-29T21:14:49.414Z,96732.46
2019-04-29T21:17:28.796Z,96731.31
2019-04-29T21:19:48.240Z,96745.67
2019-04-29T21:22:21.902Z,96737.62
2019-04-29T21:24:49.452Z,96734.61
2019-04-29T21:27:22.180Z,96732.56
2019-04-29T21:29:49.766Z,96737.23
2019-04-29T21:32:18.048Z,96733.80
2019-04-29T21:34:57.218Z,96728.05
2019-04-29T21:37:27.370Z,96725.98
2019-04-29T21:39:57.516Z,96733.29
2019-04-29T21:42:37.038Z,96736.78
2019-04-29T21:45:10.077Z,96731.08
2019-04-29T21:47:44.807Z,96729.61
2019-04-29T21:50:09.031Z,96729.92
2019-04-29T21:52:38.486Z,96735.42
2019-04-29T21:55:07.340Z,96730.37
2019-04-29T21:57:35.905Z,96735.32
2019-04-29T22:00:07.303Z,96742.16
2019-04-29T22:02:35.962Z,96742.28
2019-04-29T22:05:09.590Z,96740.50
2019-04-29T22:07:39.832Z,96741.20
2019-04-29T22:10:08.704Z,96733.00
2019-04-29T22:12:37.365Z,96739.63
2019-04-29T22:15:07.827Z,96739.94
2019-04-29T22:17:36.467Z,96731.37
2019-04-29T22:20:08.366Z,96735.69
2019-04-29T22:22:36.850Z,96733.23
2019-04-29T22:25:09.767Z,96733.52
2019-04-29T22:27:39.333Z,96736.96
2019-04-29T22:30:15.461Z,96736.00
2019-04-29T22:32:43.171Z,96741.03
2019-04-29T22:35:11.967Z,96740.81
2019-04-29T22:37:40.444Z,96741.83
2019-04-29T22:40:09.464Z,96745.16
2019-04-29T22:43:04.821Z,96737.93
2019-04-29T22:45:29.528Z,96741.67
2019-04-29T22:48:11.577Z,96731.56
2019-04-29T22:50:26.607Z,96734.05
2019-04-29T22:52:57.065Z,96734.47
2019-04-29T22:55:26.052Z,96733.32
2019-04-29T22:57:55.460Z,96740.71
2019-04-29T23:00:32.558Z,96732.97
2019-04-29T23:02:57.747Z,96733.48
2019-04-29T23:05:27.978Z,96729.90
2019-04-29T23:08:00.084Z,96721.04
2019-04-29T23:10:28.066Z,96730.05
2019-04-29T23:12:57.553Z,96718.99
2019-04-29T23:15:26.308Z,96711.84
2019-04-29T23:17:54.808Z,96709.47
2019-04-29T23:20:28.881Z,96704.59
2019-04-29T23:23:01.832Z,96698.36
2019-04-29T23:25:32.026Z,96696.70
2019-04-29T23:28:00.657Z,96689.48
2019-04-29T23:30:29.155Z,96699.00
2019-04-29T23:32:57.790Z,96690.50
2019-04-29T23:35:26.439Z,96687.11
2019-04-29T23:37:58.747Z,96687.20
2019-04-29T23:40:25.153Z,96687.01
2019-04-29T23:42:55.416Z,96681.56
2019-04-29T23:45:25.269Z,96676.70
2019-04-29T23:47:55.567Z,96670.51
2019-04-29T23:50:25.756Z,96670.90
2019-04-29T23:52:55.701Z,96669.23
2019-04-29T23:55:27.386Z,96669.23
2019-04-29T23:58:12.175Z,96673.27
